Πλησιέστερες Αναφορές METAR

 

LGTS - Thessaloniki/Makedonia-Elev 7m
Απόσταση από σταθμό: Ν 13km
Ενημερώθηκε: 06/12/2019 07:50
Σχεδόν νεφελώδης
Σχεδόν νεφελώδης
 Ανεμοι από άπνοια
Ανεμος: άπνοια
Θερμοκρασία: 7°C
Σημείο Δρόσου: 5°C
Υγρασία: 87%
Βαρόμετρο: 1030 hPa
Νέφωση: Σχεδόν νεφελώδης
Ορατότητα: 10 km
Λεπτομέρειες Νεφών: Διάσπαρτα Νέφη 610 m
Σχεδόν νεφελώδης 914 m
2019/12/06 05:50 LGTS 060550Z 00000KT 9999 FEW020 BKN030 07/05 Q1030 NOSIG
LGAV - Athens/Elef. Venizelos-Elev 94m
Απόσταση από σταθμό: ΝΝΑ 312km
Ενημερώθηκε: 06/12/2019 07:50
Διάσπαρτα Νέφη
Διάσπαρτα Νέφη
 Ανεμοι από Β
Ανεμος: Β 11 km/h
Θερμοκρασία: 9°C
Δείκτης Ψύχρας: 7°C
Σημείο Δρόσου: 2°C
Υγρασία: 62%
Βαρόμετρο: 1027 hPa
Νέφωση: Διάσπαρτα Νέφη
Ορατότητα: 10 km
Λεπτομέρειες Νεφών: Διάσπαρτα Νέφη 914 m
2019/12/06 05:50 LGAV 060550Z 35006KT 9999 FEW030 09/02 Q1027 NOSIG
 
LGAL - Alexandroupolis-Elev 3m
Απόσταση από σταθμό: Α 251km
Ενημερώθηκε: 06/12/2019 07:50
Διάσπαρτα Νέφη
Διάσπαρτα Νέφη
 Ανεμοι από άπνοια
Ανεμος: άπνοια
Θερμοκρασία: -1°C
Σημείο Δρόσου: -3°C
Υγρασία: 86%
Βαρόμετρο: 1028 hPa
Νέφωση: Διάσπαρτα Νέφη
Ορατότητα: 10 km
Λεπτομέρειες Νεφών: Διάσπαρτα Νέφη 762 m
2019/12/06 05:50 LGAL 060550Z 00000KT 9999 FEW025 M01/M03 Q1028
LGKV - Kavala/Crysoupolis-Elev 5m
Απόσταση από σταθμό: ΑΒΑ 144km
Ενημερώθηκε: 06/12/2019 07:50
Διάσπαρτα Νέφη
Διάσπαρτα Νέφη
 Ανεμοι από ΒΑ
Ανεμος: ΒΑ 7 km/h
Θερμοκρασία: 0°C
Δείκτης Ψύχρας: -3°C
Σημείο Δρόσου: -2°C
Υγρασία: 87%
Βαρόμετρο: 1028 hPa
Νέφωση: Διάσπαρτα Νέφη
Ορατότητα: 10 km
Λεπτομέρειες Νεφών: Διάσπαρτα Νέφη 610 m
2019/12/06 05:50 LGKV 060550Z 05004KT 9999 FEW020 00/M02 Q1028
 
LGSK - Skiathos Island-Elev 15m
Απόσταση από σταθμό: ΝΝΑ 168km
Ενημερώθηκε: 05/12/2019 15:50
ΜΗ Ενημερωμένο METAR!
Σχεδόν νεφελώδης
Σχεδόν νεφελώδης
 Ανεμοι από άπνοια
Ανεμος: άπνοια
Θερμοκρασία: 11°C
Σημείο Δρόσου: 7°C
Υγρασία: 77%
Βαρόμετρο: 1027 hPa
Νέφωση: Σχεδόν νεφελώδης
Ορατότητα: 10 km
Λεπτομέρειες Νεφών: Μερικώς νεφελώδης 305 m
Σχεδόν νεφελώδης 914 m
2019/12/05 13:50 LGSK 051350Z 00000KT 9999 SCT010 BKN030 11/07 Q1027
LGLM - Limnos Island-Elev 5m
Απόσταση από σταθμό: ΑΝΑ 210km
Ενημερώθηκε: 06/12/2019 07:50
Σχεδόν νεφελώδης
Σχεδόν νεφελώδης
 Ανεμοι από άπνοια
Ανεμος: άπνοια
Θερμοκρασία: 10°C
Σημείο Δρόσου: 5°C
Υγρασία: 71%
Βαρόμετρο: 1027 hPa
Νέφωση: Σχεδόν νεφελώδης
Ορατότητα: 10 km
Λεπτομέρειες Νεφών: Μερικώς νεφελώδης 457 m
Σχεδόν νεφελώδης 914 m
2019/12/06 05:50 LGLM 060550Z 00000KT 9999 SCT015 BKN030 10/05 Q1027
 
LGMT - Mitilini Island-Elev 17m
Απόσταση από σταθμό: ΑΝΑ 358km
Ενημερώθηκε: 06/12/2019 07:50
Αίθριος
Αίθριος
 Ανεμοι από ΔΒΔ
Ανεμος: ΔΒΔ 11 km/h
Θερμοκρασία: 6°C
Δείκτης Ψύχρας: 4°C
Σημείο Δρόσου: 1°C
Υγρασία: 71%
Βαρόμετρο: 1026 hPa
Περίληψη: Αίθριος
Ορατότητα: πάνω από 10 km
2019/12/06 05:50 LGMT 060550Z 29006KT CAVOK 06/01 Q1026
LGSY - Skiros Island-Elev 15m
Απόσταση από σταθμό: ΝΑ 227km
Ενημερώθηκε: 06/12/2019 07:50
Σχεδόν νεφελώδης
Σχεδόν νεφελώδης
 Ανεμοι από Β
Ανεμος: Β 20 km/h
Θερμοκρασία: 12°C
Σημείο Δρόσου: 5°C
Υγρασία: 63%
Βαρόμετρο: 1027 hPa
Νέφωση: Σχεδόν νεφελώδης
Ορατότητα: 10 km
Λεπτομέρειες Νεφών: Διάσπαρτα Νέφη 610 m
Σχεδόν νεφελώδης 762 m
2019/12/06 05:50 LGSY 060550Z 01011KT 9999 FEW020 BKN025 12/05 Q1027 BLU
 
LGKZ - Kozani-Elev 628m
Απόσταση από σταθμό: ΔΝΔ 102km
Ενημερώθηκε: 06/12/2019 07:50
Συννεφιά
Συννεφιά
 Ανεμοι από άπνοια
Ανεμος: άπνοια
Θερμοκρασία: 4°C
Σημείο Δρόσου: 3°C
Υγρασία: 93%
Βαρόμετρο: 1027 hPa
Νέφωση: Συννεφιά
Ορατότητα: 10 km
Λεπτομέρειες Νεφών: Διάσπαρτα Νέφη 305 m
Σχεδόν νεφελώδης 610 m
Συννεφιά 2134 m
2019/12/06 05:50 LGKZ 060550Z 00000KT 9999 FEW010 BKN020 OVC070 04/03 Q1027
LGIO - Ioannina-Elev 476m
Απόσταση από σταθμό: ΔΝΔ 209km
Ενημερώθηκε: 06/12/2019 07:50

 Ανεμοι από μεταβλητός
Ανεμος: μεταβλητός 2 km/h
Θερμοκρασία: 8°C
Σημείο Δρόσου: 7°C
Υγρασία: 93%
Βαρόμετρο: 1026 hPa
2019/12/06 05:50 LGIO 060550Z AUTO VRB01KT //// // ////// 08/07 Q1026 RE//
 
LGZA - Zakinthos-Elev 3m
Απόσταση από σταθμό: ΝΝΔ 367km
Ενημερώθηκε: 06/12/2019 07:50
Μερικώς νεφελώδης
Μερικώς νεφελώδης
 Ανεμοι από μεταβλητός
Ανεμος: μεταβλητός 6 km/h
Θερμοκρασία: 12°C
Σημείο Δρόσου: 11°C
Υγρασία: 94%
Βαρόμετρο: 1025 hPa
Νέφωση: Μερικώς νεφελώδης
Ορατότητα: 10 km
Λεπτομέρειες Νεφών: Μερικώς νεφελώδης 2134 m
2019/12/06 05:50 LGZA 060550Z VRB03KT 9999 SCT070 12/11 Q1025
LGKR - Corfu Island-Elev 2m
Απόσταση από σταθμό: ΔΝΔ 282km
Ενημερώθηκε: 06/12/2019 07:50
Σχεδόν νεφελώδης
Σχεδόν νεφελώδης
 Ανεμοι από Δ
Ανεμος: Δ 6 km/h
Θερμοκρασία: 12°C
Σημείο Δρόσου: 10°C
Υγρασία: 88%
Βαρόμετρο: 1025 hPa
Νέφωση: Σχεδόν νεφελώδης
Ορατότητα: 10 km
Λεπτομέρειες Νεφών: Μερικώς νεφελώδης 610 m
Σχεδόν νεφελώδης 914 m
Σχεδόν νεφελώδης 2438 m
2019/12/06 05:50 LGKR 060550Z 27003KT 9999 SCT020 BKN030 BKN080 12/10 Q1025 NOSIG
 
LGSO - Syros Island-Elev 72m
Απόσταση από σταθμό: ΝΝΑ 397km
Ενημερώθηκε: 06/12/2019 07:50
Ασθενής βροχή
Ασθενής βροχή
 Ανεμοι από ΒΒΔ
Ανεμος: ΒΒΔ 26 km/h
Θερμοκρασία: 13°C
Σημείο Δρόσου: 5°C
Υγρασία: 59%
Βαρόμετρο: 1025 hPa
Περίληψη: Ασθενής βροχή
2019/12/06 05:50 LGSO 060550Z AUTO 34014KT 310V010 //// -RA ////// 13/05 Q1025 RE//
LGMK - Mikonos Island-Elev 123m
Απόσταση από σταθμό: ΝΝΑ 412km
Ενημερώθηκε: 06/12/2019 07:50
Μερικώς νεφελώδης
Μερικώς νεφελώδης
 Ανεμοι από Β
Ανεμος: Β 26 km/h, Ριπή: 44 km/h
Θερμοκρασία: 11°C
Σημείο Δρόσου: 7°C
Υγρασία: 77%
Βαρόμετρο: 1024 hPa
Νέφωση: Μερικώς νεφελώδης
Ορατότητα: 10 km
Λεπτομέρειες Νεφών: Μερικώς νεφελώδης 366 m
2019/12/06 05:50 LGMK 060550Z 35014G24KT 9999 SCT012 11/07 Q1024
 
LGSR - Santorini Island-Elev 40m
Απόσταση από σταθμό: ΝΝΑ 520km
Ενημερώθηκε: 06/12/2019 07:50
Σχεδόν νεφελώδης
Σχεδόν νεφελώδης
 Ανεμοι από Β
Ανεμος: Β 26 km/h
Θερμοκρασία: 13°C
Σημείο Δρόσου: 6°C
Υγρασία: 63%
Βαρόμετρο: 1024 hPa
Νέφωση: Σχεδόν νεφελώδης
Ορατότητα: 10 km
Λεπτομέρειες Νεφών: Σχεδόν νεφελώδης 762 m
2019/12/06 05:50 LGSR 060550Z 36014KT 9999 BKN025 13/06 Q1024
LGKL - Kalamata-Elev 8m
Απόσταση από σταθμό: Ν 405km
Ενημερώθηκε: 06/12/2019 07:50
Σχεδόν νεφελώδης
Σχεδόν νεφελώδης
 Ανεμοι από Β
Ανεμος: Β 7 km/h
Θερμοκρασία: 12°C
Σημείο Δρόσου: 7°C
Υγρασία: 72%
Βαρόμετρο: 1025 hPa
Νέφωση: Σχεδόν νεφελώδης
Ορατότητα: 10 km
Λεπτομέρειες Νεφών: Σχεδόν νεφελώδης 914 m
2019/12/06 05:50 LGKL 060550Z 35004KT 9999 BKN030 12/07 Q1025
 
LGIR - Iraklion/Crete-Elev 5m
Απόσταση από σταθμό: ΝΝΑ 622km
Ενημερώθηκε: 06/12/2019 07:50
Σχεδόν νεφελώδης
Σχεδόν νεφελώδης
 Ανεμοι από ΒΔ
Ανεμος: ΒΔ 19 km/h
Θερμοκρασία: 15°C
Σημείο Δρόσου: 9°C
Υγρασία: 68%
Βαρόμετρο: 1024 hPa
Νέφωση: Σχεδόν νεφελώδης
Ορατότητα: 10 km
Λεπτομέρειες Νεφών: Διάσπαρτα Νέφη 549 m
Σχεδόν νεφελώδης 762 m
2019/12/06 05:50 LGIR 060550Z 31010KT 9999 FEW018 BKN025 15/09 Q1024 NOSIG
LGRP - Rhodes-Elev 5m
Απόσταση από σταθμό: ΝΑ 649km
Ενημερώθηκε: 06/12/2019 07:50
Αίθριος
Αίθριος
 Ανεμοι από ΔΒΔ
Ανεμος: ΔΒΔ 17 km/h
Θερμοκρασία: 13°C
Σημείο Δρόσου: 4°C
Υγρασία: 55%
Βαρόμετρο: 1020 hPa
Περίληψη: Αίθριος
Ορατότητα: πάνω από 10 km
2019/12/06 05:50 LGRP 060550Z 30009KT CAVOK 13/04 Q1020 NOSIG
 
LWOH - Ohrid/FYROM-Elev 761m
Απόσταση από σταθμό: ΔΒΔ 188km
Ενημερώθηκε: 06/12/2019 08:00
Σχεδόν νεφελώδης
Σχεδόν νεφελώδης
 Ανεμοι από ΒΒΔ
Ανεμος: ΒΒΔ 4 km/h
Θερμοκρασία: 2°C
Σημείο Δρόσου: 0°C
Υγρασία: 87%
Βαρόμετρο: 1026 hPa
Νέφωση: Σχεδόν νεφελώδης
Ορατότητα: 10 km
Λεπτομέρειες Νεφών: Μερικώς νεφελώδης 518 m
Σχεδόν νεφελώδης 1372 m
2019/12/06 06:00 LWOH 060600Z 34002KT 9999 SCT017 BKN045 02/00 Q1026
LBSF - Sofia/Bulgaria-Elev 595m
Απόσταση από σταθμό: Β 227km
Ενημερώθηκε: 06/12/2019 08:00
Freezing fog, Συννεφιά
Freezing fog, Συννεφιά
 Ανεμοι από ΒΑ
Ανεμος: ΒΑ 4 km/h
Θερμοκρασία: -5°C
Σημείο Δρόσου: -6°C
Υγρασία: 93%
Βαρόμετρο: 1028 hPa
Περίληψη: Παγωμένη Ομίχλη
Νέφωση: Συννεφιά
Ορατότητα: 0 km
Λεπτομέρειες Νεφών: Συννεφιά 61 m
2019/12/06 06:00 LBSF 060600Z 04002KT 0350 R27/0400N FZFG VV002 M05/M06 Q1028 NOSIG